Time;durP1;ratioP1;P1;durP2;ratioP2;P2;SDS_P1;SDS_P2;PMS_P1;PMS_P2;Temp;Humidity;BMP_temperature;BMP_pressure;BME280_temperature;BME280_humidity;BME280_pressure;Samples;Min_cycle;Max_cycle;Signal;HPM_P1;HPM_P2
2022/11/05 00:10:37;;;;;;;28.58;14.52;;;;;;;8.05;99.92;101002.69;5092616;28;20139;-61
2022/11/05 00:18:41;;;;;;;26.27;14.38;;;;;;;8.08;99.86;101015.66;5092961;28;20398;-63
2022/11/05 00:25:12;;;;;;;28.77;13.82;;;;;;;8.10;99.19;101007.59;5092430;28;20040;-63
2022/11/05 00:26:43;;;;;;;29.25;14.23;;;;;;;8.02;98.69;101024.09;5096648;28;20375;-62
2022/11/05 00:29:10;;;;;;;29.38;13.65;;;;;;;7.93;99.99;101027.50;5096843;28;20036;-62
2022/11/05 00:31:37;;;;;;;32.67;13.88;;;;;;;7.91;99.80;101032.91;5096824;28;20121;-62
2022/11/05 00:34:04;;;;;;;26.77;13.07;;;;;;;7.94;99.39;101034.47;5096980;28;20432;-62
2022/11/05 00:36:30;;;;;;;32.72;13.75;;;;;;;7.91;99.36;101035.56;5095605;28;20040;-63
2022/11/05 00:38:57;;;;;;;30.23;13.68;;;;;;;7.77;99.72;101041.19;5048979;28;20530;-62
2022/11/05 00:41:24;;;;;;;28.42;14.15;;;;;;;7.72;99.88;101049.47;5026275;28;20046;-63
2022/11/05 00:46:37;;;;;;;29.90;14.75;;;;;;;7.75;99.50;101056.31;5096357;28;20044;-62
2022/11/05 00:49:35;;;;;;;30.58;15.10;;;;;;;7.68;99.65;101058.63;5096330;28;20036;-62
2022/11/05 00:52:54;;;;;;;30.00;15.30;;;;;;;7.72;99.59;101062.69;5096285;28;20044;-62
2022/11/05 00:54:37;;;;;;;28.55;14.48;;;;;;;7.50;100.00;101061.00;5096122;28;20040;-62
2022/11/05 00:57:04;;;;;;;32.08;15.63;;;;;;;7.63;99.68;101056.38;5095263;28;20054;-62
2022/11/05 00:59:30;;;;;;;24.67;14.18;;;;;;;7.61;99.26;101060.94;5096400;28;20479;-62
2022/11/05 01:01:57;;;;;;;30.08;14.50;;;;;;;7.62;99.22;101062.63;5096178;28;20167;-62
2022/11/05 01:04:24;;;;;;;28.30;15.15;;;;;;;7.59;99.94;101056.75;5095687;28;20553;-62
2022/11/05 01:06:50;;;;;;;28.88;13.38;;;;;;;7.58;99.35;101063.00;5095779;28;20040;-62
2022/11/05 01:09:17;;;;;;;28.10;14.20;;;;;;;7.60;98.62;101059.25;5096107;28;20066;-62
2022/11/05 01:11:44;;;;;;;35.13;14.73;;;;;;;7.52;98.50;101058.22;5096076;28;20048;-62
2022/11/05 01:14:14;;;;;;;32.45;15.02;;;;;;;7.37;99.22;101058.53;5096173;28;20122;-61
2022/11/05 01:16:42;;;;;;;30.58;14.15;;;;;;;7.40;98.57;101063.53;5096024;28;20052;-62
2022/11/05 01:19:10;;;;;;;28.20;14.55;;;;;;;7.39;98.93;101066.31;5096174;28;20095;-62
2022/11/05 01:21:37;;;;;;;30.05;15.73;;;;;;;7.38;99.05;101070.72;5077925;28;20052;-62
2022/11/05 01:24:04;;;;;;;28.77;14.90;;;;;;;7.41;98.90;101072.31;5094352;28;20036;-62
2022/11/05 01:26:31;;;;;;;30.50;15.77;;;;;;;7.33;98.70;101075.56;5095742;28;20093;-62
2022/11/05 01:28:59;;;;;;;33.28;15.75;;;;;;;7.29;98.07;101088.19;5095714;28;20047;-62
2022/11/05 01:31:27;;;;;;;35.85;15.68;;;;;;;7.31;98.22;101093.31;5095986;28;20044;-62
2022/11/05 01:33:54;;;;;;;28.95;15.65;;;;;;;7.24;98.07;101095.63;5094823;28;20101;-62
2022/11/05 01:36:21;;;;;;;30.60;15.15;;;;;;;7.29;97.48;101100.50;5095922;28;20069;-62
2022/11/05 01:38:47;;;;;;;33.10;15.77;;;;;;;7.35;97.83;101104.47;5079721;28;20050;-62
2022/11/05 01:41:17;;;;;;;36.00;16.52;;;;;;;7.35;97.89;101110.59;4995316;28;20044;-62
2022/11/05 01:44:00;;;;;;;34.28;17.05;;;;;;;7.38;98.05;101093.66;5094305;28;20044;-62
2022/11/05 01:46:36;;;;;;;36.88;15.93;;;;;;;7.45;98.53;101103.59;5095142;28;20521;-62
2022/11/05 01:49:19;;;;;;;32.92;16.33;;;;;;;7.45;98.10;101110.69;5095487;28;20051;-62
2022/11/05 01:51:47;;;;;;;33.53;16.75;;;;;;;7.44;98.46;101114.25;5095309;28;20072;-62
2022/11/05 01:54:17;;;;;;;35.20;17.80;;;;;;;7.40;99.78;101118.13;5095217;28;20032;-62
2022/11/05 01:56:50;;;;;;;35.13;16.58;;;;;;;7.46;99.09;101120.28;5094919;28;20043;-62
2022/11/05 01:59:25;;;;;;;29.55;16.90;;;;;;;7.53;98.43;101117.97;5095239;28;20508;-62
2022/11/05 02:01:53;;;;;;;33.22;16.15;;;;;;;7.54;98.83;101120.50;5094688;28;20497;-62
2022/11/05 02:04:31;;;;;;;30.38;16.30;;;;;;;7.52;98.76;101116.31;5093311;28;20097;-62
2022/11/05 02:06:58;;;;;;;33.05;16.92;;;;;;;7.54;98.82;101117.00;5094815;28;20051;-61
2022/11/05 02:09:38;;;;;;;31.52;16.55;;;;;;;7.50;99.83;101119.06;5094805;28;20398;-62
2022/11/05 02:12:07;;;;;;;39.05;17.33;;;;;;;7.56;99.50;101115.09;5094804;28;20061;-62
2022/11/05 02:14:33;;;;;;;30.77;15.68;;;;;;;7.57;98.74;101122.06;5094672;28;20044;-62
2022/11/05 02:20:09;;;;;;;28.90;16.08;;;;;;;7.58;99.16;101119.25;5147279;27;20176;-62
2022/11/05 02:23:00;;;;;;;34.60;16.02;;;;;;;7.56;99.14;101130.94;5111110;28;20494;-62
2022/11/05 02:25:49;;;;;;;32.90;16.42;;;;;;;7.53;98.60;101128.53;5110697;28;20074;-63
2022/11/05 02:28:44;;;;;;;29.40;15.75;;;;;;;7.53;97.77;101128.53;5110652;28;20118;-61
2022/11/05 02:31:27;;;;;;;27.25;15.02;;;;;;;7.44;98.19;101128.31;5092409;28;20048;-62
2022/11/05 02:34:10;;;;;;;32.88;16.27;;;;;;;7.34;98.76;101127.38;5111025;28;20071;-62
2022/11/05 02:37:08;;;;;;;33.30;16.85;;;;;;;7.35;99.37;101134.34;5110383;28;20046;-62
2022/11/05 02:39:45;;;;;;;30.70;16.40;;;;;;;7.37;99.89;101134.19;4962005;28;20484;-63
2022/11/05 02:42:52;;;;;;;31.90;16.75;;;;;;;7.42;98.86;101143.47;5092059;28;20040;-63
2022/11/05 02:45:59;;;;;;;36.53;16.33;;;;;;;7.47;98.79;101137.78;5110417;28;20082;-63
2022/11/05 02:48:48;;;;;;;32.20;16.15;;;;;;;7.38;98.87;101144.63;5110169;28;20047;-63
2022/11/05 02:51:25;;;;;;;31.73;15.05;;;;;;;7.48;98.45;101142.94;5110330;28;20074;-63
2022/11/05 02:56:50;;;;;;;30.30;15.85;;;;;;;7.15;98.91;101135.94;5110936;27;20384;-63
2022/11/05 02:59:17;;;;;;;34.20;16.48;;;;;;;7.26;98.48;101138.56;5110962;28;20127;-63
2022/11/05 03:01:45;;;;;;;25.80;15.35;;;;;;;7.28;98.66;101135.81;5110756;28;20064;-62
2022/11/05 03:04:16;;;;;;;29.58;15.50;;;;;;;7.32;98.57;101136.41;5109540;28;20378;-63
2022/11/05 03:07:15;;;;;;;28.95;15.57;;;;;;;7.35;98.23;101134.34;5109116;28;20463;-63
2022/11/05 03:10:09;;;;;;;28.77;14.43;;;;;;;7.22;98.47;101131.84;5110739;28;20052;-63
2022/11/05 03:13:02;;;;;;;30.17;15.38;;;;;;;7.13;98.80;101131.72;5110039;28;20044;-62
2022/11/05 03:16:01;;;;;;;31.20;15.13;;;;;;;7.18;98.46;101127.75;5110834;28;20043;-63
2022/11/05 03:18:43;;;;;;;26.38;14.40;;;;;;;7.16;98.02;101134.13;5110331;28;20556;-62
2022/11/05 03:21:20;;;;;;;32.05;14.38;;;;;;;7.14;97.17;101133.44;5110660;28;20382;-62
2022/11/05 03:23:57;;;;;;;27.58;14.88;;;;;;;7.09;96.62;101128.50;5110192;28;20048;-62
2022/11/05 03:26:30;;;;;;;28.30;14.20;;;;;;;7.08;97.01;101132.13;5110373;28;20110;-62
2022/11/05 03:29:05;;;;;;;26.02;14.88;;;;;;;6.96;97.79;101135.72;5092693;28;20143;-62
2022/11/05 03:31:34;;;;;;;26.75;14.15;;;;;;;6.85;98.68;101134.75;5109332;28;20048;-62
2022/11/05 03:34:04;;;;;;;27.15;14.85;;;;;;;6.91;98.28;101136.94;5108999;28;20044;-63
2022/11/05 03:36:38;;;;;;;29.38;15.88;;;;;;;6.99;98.46;101143.41;5126151;28;20063;-62
2022/11/05 03:39:13;;;;;;;26.23;14.32;;;;;;;6.92;98.38;101137.75;5081129;28;20119;-62
2022/11/05 03:41:43;;;;;;;28.67;14.85;;;;;;;6.84;98.50;101150.69;5005091;28;20501;-61
2022/11/05 03:44:16;;;;;;;27.77;14.23;;;;;;;6.74;98.97;101153.22;5110111;28;20122;-64
2022/11/05 03:46:48;;;;;;;25.27;13.95;;;;;;;6.78;98.89;101156.44;5109757;28;20046;-61
2022/11/05 03:49:20;;;;;;;27.33;14.40;;;;;;;6.84;98.94;101153.31;5109892;28;20498;-61
2022/11/05 03:51:52;;;;;;;;;;;;;;;6.85;99.06;101149.75;5109220;28;20051;-61
2022/11/05 03:54:19;;;;;;;24.90;13.63;;;;;;;6.90;98.50;101158.97;5110245;28;19984;-61
2022/11/05 03:57:00;;;;;;;27.23;14.32;;;;;;;6.87;98.19;101155.72;5108359;28;20085;-61
2022/11/05 03:59:29;;;;;;;29.85;15.00;;;;;;;6.93;97.81;101150.00;5109811;28;20052;-61
2022/11/05 04:01:56;;;;;;;32.13;14.27;;;;;;;6.83;97.14;101165.69;5109175;28;20444;-63
2022/11/05 04:04:24;;;;;;;24.55;13.82;;;;;;;6.86;97.62;101175.16;5090935;28;20401;-62
2022/11/05 04:15:10;;;;;;;24.55;13.27;;;;;;;6.65;98.93;101175.03;5095582;28;20036;-62
2022/11/05 04:17:37;;;;;;;34.70;14.00;;;;;;;6.70;98.84;101180.78;5094612;28;20039;-62
2022/11/05 04:25:46;;;;;;;24.40;13.10;;;;;;;6.66;98.23;101188.09;5095415;28;20514;-62
2022/11/05 04:28:13;;;;;;;22.50;13.02;;;;;;;6.65;98.61;101193.47;5095561;28;20093;-62
2022/11/05 04:30:40;;;;;;;29.35;14.00;;;;;;;6.58;97.33;101194.91;5095319;28;20080;-62
2022/11/05 04:33:10;;;;;;;27.13;14.20;;;;;;;6.56;98.01;101192.38;5095696;28;20040;-62
2022/11/05 04:35:40;;;;;;;25.25;13.57;;;;;;;6.57;98.43;101198.47;5077727;28;20046;-62
2022/11/05 04:38:11;;;;;;;27.75;13.13;;;;;;;6.57;98.96;101193.19;5077193;28;20439;-62
2022/11/05 04:40:37;;;;;;;24.75;13.32;;;;;;;6.58;98.00;101194.91;4982779;28;20055;-63
2022/11/05 04:43:04;;;;;;;25.40;13.43;;;;;;;6.52;98.09;101194.41;5094850;28;20089;-63
2022/11/05 04:45:34;;;;;;;27.55;13.57;;;;;;;6.49;98.18;101199.06;5094109;28;20032;-62
2022/11/05 04:48:02;;;;;;;30.25;14.32;;;;;;;6.50;98.55;101190.22;5095073;28;20044;-63
2022/11/05 04:50:29;;;;;;;25.50;14.20;;;;;;;6.46;99.08;101194.88;5094212;28;20432;-62
2022/11/05 04:52:56;;;;;;;23.50;12.98;;;;;;;6.49;98.57;101191.16;5094957;28;20044;-62
2022/11/05 04:55:24;;;;;;;30.48;14.73;;;;;;;6.47;99.47;101191.28;5094642;28;20497;-62
2022/11/05 04:57:52;;;;;;;30.48;13.73;;;;;;;6.52;99.01;101190.94;5095237;28;20097;-63
2022/11/05 05:00:20;;;;;;;29.35;14.43;;;;;;;6.49;99.55;101194.66;5076825;28;20062;-63
2022/11/05 05:02:47;;;;;;;27.98;15.10;;;;;;;6.48;98.59;101203.50;5094935;28;20040;-62
2022/11/05 05:05:14;;;;;;;33.30;15.38;;;;;;;6.47;98.67;101198.34;5092944;28;20393;-62
2022/11/05 05:07:41;;;;;;;32.05;14.15;;;;;;;6.45;97.33;101198.47;5094965;28;20403;-63
2022/11/05 05:10:09;;;;;;;27.83;15.00;;;;;;;6.42;98.42;101195.22;5094971;28;20043;-62
2022/11/05 05:12:36;;;;;;;28.42;15.10;;;;;;;6.44;98.31;101198.56;5093577;28;20048;-63
2022/11/05 05:15:03;;;;;;;29.33;14.65;;;;;;;6.37;98.60;101199.97;5094719;28;20050;-62
2022/11/05 05:17:30;;;;;;;29.25;15.07;;;;;;;6.36;98.51;101207.06;5093203;28;20489;-62
2022/11/05 05:22:50;;;;;;;28.42;13.85;;;;;;;6.34;98.26;101207.16;5093175;28;20039;-63
2022/11/05 05:25:17;;;;;;;32.45;15.38;;;;;;;6.31;97.66;101204.78;5093421;28;20067;-62
2022/11/05 05:27:44;;;;;;;31.23;14.77;;;;;;;6.25;97.45;101207.03;5094304;28;20044;-62
2022/11/05 05:30:11;;;;;;;28.40;15.30;;;;;;;6.27;97.37;101199.84;5093599;28;20482;-63
2022/11/05 05:32:37;;;;;;;33.97;15.45;;;;;;;6.23;97.69;101201.88;5094482;28;20165;-62
2022/11/05 05:35:04;;;;;;;32.35;15.02;;;;;;;6.24;97.17;101208.84;5092893;28;20154;-63
2022/11/05 05:37:32;;;;;;;29.00;15.77;;;;;;;6.26;96.66;101200.81;5094318;28;20047;-62
2022/11/05 05:39:59;;;;;;;30.80;15.98;;;;;;;6.23;96.44;101203.69;4966294;28;20044;-63
2022/11/05 05:42:26;;;;;;;36.88;16.92;;;;;;;6.22;96.39;101205.47;5094359;28;20048;-63
2022/11/05 05:44:52;;;;;;;33.50;16.83;;;;;;;6.19;97.16;101216.22;5093863;28;20050;-63
2022/11/05 05:47:19;;;;;;;34.17;15.98;;;;;;;6.18;96.63;101219.81;5093211;28;20293;-62
2022/11/05 05:49:46;;;;;;;31.15;15.48;;;;;;;6.10;97.14;101216.91;5094164;28;20054;-62
2022/11/05 05:52:12;;;;;;;36.03;17.33;;;;;;;6.12;96.82;101217.63;5092705;28;20066;-62
2022/11/05 05:54:39;;;;;;;32.63;16.42;;;;;;;6.13;97.46;101227.22;5093729;28;20056;-62
2022/11/05 05:57:08;;;;;;;33.28;15.85;;;;;;;6.10;97.83;101227.47;5093490;28;20036;-62
2022/11/05 05:59:34;;;;;;;29.65;16.30;;;;;;;6.08;97.60;101224.94;5092779;28;20416;-63
2022/11/05 06:02:01;;;;;;;35.63;17.02;;;;;;;6.08;97.19;101226.72;5092296;28;20094;-63
2022/11/05 06:04:28;;;;;;;33.13;16.55;;;;;;;6.07;97.93;101227.66;5092398;28;20047;-63
2022/11/05 06:06:55;;;;;;;37.65;16.55;;;;;;;6.05;97.62;101238.31;5093628;28;20044;-63
2022/11/05 06:09:21;;;;;;;31.33;16.52;;;;;;;6.01;98.11;101233.41;5092285;28;20044;-62
2022/11/05 06:11:48;;;;;;;39.80;17.17;;;;;;;6.00;98.14;101237.81;5093492;28;20065;-62
2022/11/05 06:14:15;;;;;;;33.13;17.38;;;;;;;6.02;97.79;101243.81;5092273;28;20123;-62
2022/11/05 06:16:41;;;;;;;34.40;16.63;;;;;;;6.03;97.31;101244.66;5093604;28;20094;-62
2022/11/05 06:19:08;;;;;;;36.65;16.88;;;;;;;5.95;97.66;101247.81;5093283;28;20101;-63
2022/11/05 06:21:35;;;;;;;36.33;17.58;;;;;;;5.94;97.70;101246.13;5093388;28;20039;-62
2022/11/05 06:24:02;;;;;;;32.53;17.25;;;;;;;5.96;97.74;101245.09;5093757;28;20127;-63
2022/11/05 06:26:32;;;;;;;35.97;17.52;;;;;;;5.96;97.93;101247.72;5092158;28;20044;-62
2022/11/05 06:28:59;;;;;;;39.80;17.88;;;;;;;5.98;98.49;101244.97;5091982;28;20048;-63
2022/11/05 06:31:26;;;;;;;35.47;17.10;;;;;;;5.93;98.11;101249.72;5091799;28;20397;-62
2022/11/05 06:33:52;;;;;;;36.85;17.42;;;;;;;5.85;97.78;101247.63;5093288;28;20065;-63
2022/11/05 06:36:19;;;;;;;38.70;16.98;;;;;;;5.91;97.66;101255.09;5093119;28;20101;-62
2022/11/05 06:38:48;;;;;;;40.60;19.23;;;;;;;5.85;98.49;101258.16;5077618;28;20050;-59
2022/11/05 06:41:18;;;;;;;36.95;17.67;;;;;;;5.99;98.45;101273.00;4976087;28;20052;-63
2022/11/05 06:43:44;;;;;;;34.63;17.05;;;;;;;6.00;97.38;101277.31;5092972;28;20051;-63
2022/11/05 06:46:11;;;;;;;40.67;19.33;;;;;;;6.01;97.19;101276.38;5093174;28;20047;-63
2022/11/05 06:48:39;;;;;;;46.45;18.77;;;;;;;5.96;97.24;101295.13;5092896;28;20065;-63
2022/11/05 06:51:07;;;;;;;39.70;18.38;;;;;;;6.00;98.40;101300.19;5093032;28;20044;-63
2022/11/05 06:53:34;;;;;;;47.75;18.23;;;;;;;5.95;97.60;101297.88;5092905;28;20040;-63
2022/11/05 06:56:03;;;;;;;38.63;19.13;;;;;;;6.00;98.17;101289.66;5091749;28;20056;-63
2022/11/05 06:58:32;;;;;;;41.28;18.60;;;;;;;5.99;97.99;101290.63;5092974;28;20501;-63
2022/11/05 07:01:00;;;;;;;43.45;19.00;;;;;;;6.01;98.18;101293.97;5091973;28;20048;-63
2022/11/05 07:03:27;;;;;;;42.33;19.33;;;;;;;6.00;97.76;101302.81;5093272;28;20048;-63
2022/11/05 07:05:56;;;;;;;42.55;19.40;;;;;;;6.02;98.23;101307.03;5092436;28;20093;-63
2022/11/05 07:08:23;;;;;;;38.00;18.15;;;;;;;6.04;97.84;101304.28;5089974;28;20378;-63
2022/11/05 07:10:50;;;;;;;44.33;20.42;;;;;;;6.03;98.74;101306.06;5086832;28;20102;-63
2022/11/05 07:13:16;;;;;;;37.65;19.38;;;;;;;6.01;99.40;101309.78;5072654;28;20401;-63
2022/11/05 07:15:43;;;;;;;37.58;19.60;;;;;;;6.04;99.60;101299.88;5072294;28;20094;-63
2022/11/05 07:18:10;;;;;;;43.40;19.40;;;;;;;6.11;98.97;101308.16;5071745;28;20139;-63
2022/11/05 07:20:36;;;;;;;43.50;20.02;;;;;;;6.13;98.67;101315.00;5084122;28;20078;-62
2022/11/05 07:23:05;;;;;;;39.72;19.23;;;;;;;6.19;98.27;101311.06;5092475;28;20482;-63
2022/11/05 07:25:33;;;;;;;47.60;20.27;;;;;;;6.26;98.99;101322.84;5092835;28;20093;-63
2022/11/05 07:28:00;;;;;;;39.97;20.02;;;;;;;6.30;98.92;101315.56;5092313;28;20428;-62
2022/11/05 07:30:29;;;;;;;37.55;19.13;;;;;;;6.31;98.22;101318.09;5092663;28;20032;-63
2022/11/05 07:32:56;;;;;;;39.50;19.15;;;;;;;6.34;99.19;101322.28;5092457;28;20093;-63
2022/11/05 07:35:23;;;;;;;46.20;21.13;;;;;;;6.30;99.27;101332.22;5092707;28;20443;-63
2022/11/05 07:37:52;;;;;;;46.42;20.02;;;;;;;6.49;99.34;101334.34;5091706;28;20040;-63
2022/11/05 07:40:20;;;;;;;41.67;18.95;;;;;;;6.57;98.55;101341.69;5032438;28;20056;-63
2022/11/05 07:42:50;;;;;;;37.08;18.63;;;;;;;6.59;99.31;101334.50;5095024;28;20055;-63
2022/11/05 07:45:18;;;;;;;36.88;18.67;;;;;;;6.59;99.52;101336.31;5096241;28;20508;-63
2022/11/05 07:47:47;;;;;;;41.65;19.65;;;;;;;6.67;98.64;101334.75;5095704;28;20387;-65
2022/11/05 07:50:17;;;;;;;42.55;20.20;;;;;;;6.66;98.96;101350.72;5084553;28;20044;-63
2022/11/05 07:52:44;;;;;;;41.03;19.45;;;;;;;6.73;98.85;101347.50;5096000;28;20131;-63
2022/11/05 07:55:12;;;;;;;36.88;19.05;;;;;;;6.83;99.38;101346.81;5094873;28;20111;-63
2022/11/05 07:57:41;;;;;;;42.33;19.88;;;;;;;7.13;97.91;101345.44;5094435;28;20043;-62
2022/11/05 08:00:11;;;;;;;38.97;18.98;;;;;;;7.44;95.61;101343.94;5095220;28;20413;-63
2022/11/05 08:02:39;;;;;;;35.20;18.58;;;;;;;7.57;94.60;101343.84;5078020;28;20049;-63
2022/11/05 08:05:06;;;;;;;39.28;18.27;;;;;;;7.48;94.61;101348.88;5095553;28;20085;-63
2022/11/05 08:07:33;;;;;;;41.70;19.45;;;;;;;8.18;92.85;101338.94;5094465;28;20036;-63
2022/11/05 08:10:03;;;;;;;40.40;18.02;;;;;;;8.55;90.44;101340.44;5111960;28;20087;-61
2022/11/05 08:12:31;;;;;;;34.00;17.35;;;;;;;9.01;87.88;101333.97;5077742;28;20565;-62
2022/11/05 08:14:57;;;;;;;35.30;16.90;;;;;;;8.96;87.34;101336.16;5095540;28;20439;-62
2022/11/05 08:17:24;;;;;;;33.10;15.95;;;;;;;8.28;88.94;101341.72;5094454;28;20040;-61
2022/11/05 08:19:51;;;;;;;41.00;16.98;;;;;;;8.03;91.19;101346.31;5095410;28;20444;-62
2022/11/05 08:22:18;;;;;;;32.58;17.20;;;;;;;7.84;92.27;101341.66;5095576;28;20500;-62
2022/11/05 08:24:44;;;;;;;37.20;17.20;;;;;;;7.67;92.96;101347.44;5094454;28;20044;-63
2022/11/05 08:27:11;;;;;;;38.33;16.80;;;;;;;7.54;93.69;101349.34;5094266;28;20039;-62
2022/11/05 08:29:38;;;;;;;38.40;17.80;;;;;;;7.57;94.74;101344.69;5095409;28;20413;-62
2022/11/05 08:32:05;;;;;;;39.17;16.92;;;;;;;7.50;94.80;101356.66;5094518;28;20082;-62
2022/11/05 08:34:32;;;;;;;43.20;17.95;;;;;;;7.40;94.82;101355.69;5077887;28;20047;-62
2022/11/05 08:37:00;;;;;;;31.33;17.10;;;;;;;7.51;95.61;101358.34;5095215;28;20039;-62
2022/11/05 08:39:27;;;;;;;43.20;16.52;;;;;;;7.54;95.57;101358.09;4968444;28;20574;-63
2022/11/05 08:41:54;;;;;;;38.90;18.35;;;;;;;7.34;95.71;101354.38;5094030;28;20043;-63
2022/11/05 08:44:21;;;;;;;40.22;18.58;;;;;;;7.45;95.89;101362.28;5093940;28;20078;-63
2022/11/05 08:46:47;;;;;;;40.28;18.00;;;;;;;7.58;96.54;101362.19;5095194;28;20040;-63
2022/11/05 08:49:14;;;;;;;41.00;19.08;;;;;;;7.69;96.76;101366.63;5086306;28;20119;-62
2022/11/05 08:51:43;;;;;;;37.00;18.23;;;;;;;7.76;95.73;101367.00;5094789;28;20371;-62
2022/11/05 08:54:10;;;;;;;42.10;19.02;;;;;;;7.78;95.29;101367.72;5076886;28;20051;-62
2022/11/05 08:56:37;;;;;;;39.33;17.40;;;;;;;7.79;95.62;101361.47;5094804;28;20044;-63
2022/11/05 08:59:04;;;;;;;37.97;17.80;;;;;;;7.85;95.95;101369.75;5094575;28;20044;-62
2022/11/05 09:01:32;;;;;;;41.05;17.95;;;;;;;7.88;95.09;101369.50;5095153;28;20055;-62
2022/11/05 09:03:59;;;;;;;36.78;17.13;;;;;;;7.84;93.93;101370.72;5094664;28;20055;-62
2022/11/05 09:06:25;;;;;;;41.38;17.95;;;;;;;7.88;94.46;101372.16;5092990;28;20039;-63
2022/11/05 09:08:52;;;;;;;35.75;16.70;;;;;;;7.94;93.32;101370.81;5094716;28;20044;-62
2022/11/05 09:11:19;;;;;;;40.70;17.00;;;;;;;7.91;94.07;101375.50;5093000;28;20436;-63
2022/11/05 09:13:46;;;;;;;46.75;17.77;;;;;;;7.93;94.38;101373.59;5093610;28;20440;-62
2022/11/05 09:16:19;;;;;;;41.28;17.45;;;;;;;7.93;94.59;101377.09;5094365;28;20109;-62
2022/11/05 09:18:46;;;;;;;38.60;17.98;;;;;;;8.10;95.07;101377.56;5094597;28;20134;-62
2022/11/05 09:21:13;;;;;;;43.13;17.42;;;;;;;8.13;93.33;101382.56;5094209;28;20059;-62
2022/11/05 09:23:39;;;;;;;35.20;17.65;;;;;;;8.22;93.56;101381.84;5092548;28;20048;-61
2022/11/05 09:26:06;;;;;;;43.83;17.45;;;;;;;8.23;92.56;101384.34;5092979;28;20547;-61
2022/11/05 09:28:33;;;;;;;42.58;18.23;;;;;;;8.30;92.39;101374.13;5095177;28;20039;-61
2022/11/05 09:31:05;;;;;;;42.47;18.20;;;;;;;8.36;94.11;101376.28;5084293;28;20492;-63
2022/11/05 09:33:33;;;;;;;37.45;17.15;;;;;;;8.48;93.72;101374.50;5076292;28;20047;-63
2022/11/05 09:36:00;;;;;;;36.13;17.45;;;;;;;8.53;92.79;101380.25;5094022;28;20094;-62
2022/11/05 09:38:27;;;;;;;34.65;17.35;;;;;;;8.62;92.44;101375.97;5093792;28;20042;-62
2022/11/05 09:40:59;;;;;;;39.97;17.30;;;;;;;8.59;91.22;101374.44;4976532;28;20051;-62
2022/11/05 09:43:48;;;;;;;34.38;16.15;;;;;;;8.69;92.05;101385.09;5076009;28;20501;-64
2022/11/05 09:46:22;;;;;;;30.25;13.77;;;;;;;8.81;89.23;101381.44;5086386;28;20059;-62
2022/11/05 09:48:56;;;;;;;37.58;12.93;;;;;;;8.64;88.75;101382.84;5076181;28;20206;-62
2022/11/05 09:51:22;;;;;;;35.47;15.35;;;;;;;8.78;89.79;101379.06;5094061;28;20500;-62
2022/11/05 09:53:52;;;;;;;34.03;13.73;;;;;;;8.88;89.86;101371.22;5092954;28;20044;-62
2022/11/05 09:56:23;;;;;;;36.78;14.20;;;;;;;8.94;89.85;101378.63;5075649;28;20040;-62
2022/11/05 09:58:56;;;;;;;30.17;13.23;;;;;;;9.04;90.21;101376.06;5092847;28;20048;-62
2022/11/05 10:01:27;;;;;;;32.80;12.38;;;;;;;9.06;87.50;101378.56;5093765;28;20374;-62
2022/11/05 10:03:58;;;;;;;31.25;12.32;;;;;;;9.19;87.46;101382.72;5092239;28;20131;-62
2022/11/05 10:06:26;;;;;;;29.63;11.25;;;;;;;9.14;85.51;101381.41;5085788;28;20159;-62
2022/11/05 10:09:02;;;;;;;27.55;12.02;;;;;;;9.18;86.02;101377.53;5090514;28;20048;-62
2022/11/05 10:11:37;;;;;;;24.88;11.65;;;;;;;9.39;86.70;101380.19;5090611;28;20078;-62
2022/11/05 10:14:15;;;;;;;29.27;10.95;;;;;;;9.43;85.46;101380.75;5079200;28;20041;-63
2022/11/05 10:16:47;;;;;;;26.45;11.07;;;;;;;9.56;82.58;101381.38;5091378;28;20559;-63
2022/11/05 10:19:23;;;;;;;28.35;11.40;;;;;;;9.65;84.31;101387.69;5091431;28;20055;-63
2022/11/05 10:21:54;;;;;;;25.60;10.00;;;;;;;9.69;83.89;101394.41;5078555;28;20064;-62
2022/11/05 10:24:40;;;;;;;23.20;9.23;;;;;;;9.79;81.51;101387.34;5092544;28;20047;-62
2022/11/05 10:27:14;;;;;;;25.63;9.57;;;;;;;9.89;80.82;101388.22;5083332;28;20500;-62
2022/11/05 10:29:42;;;;;;;28.35;9.60;;;;;;;10.00;80.76;101387.28;5074173;28;20128;-63
2022/11/05 10:32:15;;;;;;;27.08;8.88;;;;;;;10.25;80.91;101390.44;5084615;28;20093;-62
2022/11/05 10:34:43;;;;;;;25.05;9.93;;;;;;;10.41;78.36;101390.78;5088181;28;20068;-63
2022/11/05 10:37:10;;;;;;;21.50;9.10;;;;;;;10.85;78.02;101385.09;5088798;28;20316;-63
2022/11/05 10:39:36;;;;;;;26.30;7.72;;;;;;;11.23;76.51;101388.69;4965858;28;20557;-62
2022/11/05 10:42:43;;;;;;;20.13;7.32;;;;;;;11.65;73.41;101390.94;5090616;28;20093;-62
2022/11/05 10:45:33;;;;;;;24.48;7.65;;;;;;;11.90;70.87;101397.47;5091586;28;20048;-63
2022/11/05 10:48:26;;;;;;;28.83;8.75;;;;;;;13.60;67.85;101395.72;5093000;28;20173;-62
2022/11/05 10:50:54;;;;;;;20.52;7.32;;;;;;;13.80;63.37;101400.81;5091675;28;20040;-62
2022/11/05 10:53:27;;;;;;;20.70;6.65;;;;;;;14.11;63.38;101403.78;5090449;28;20451;-62
2022/11/05 10:55:57;;;;;;;18.30;6.13;;;;;;;14.71;60.92;101405.47;5091642;28;20101;-62
2022/11/05 10:58:29;;;;;;;16.52;5.80;;;;;;;15.21;58.41;101403.66;5091847;28;20036;-62
2022/11/05 11:03:44;;;;;;;14.63;6.82;;;;;;;16.15;55.59;101408.44;5109678;27;20919;-62
2022/11/05 11:08:58;;;;;;;17.17;5.55;;;;;;;16.32;53.08;101407.38;5110577;27;20350;-64
2022/11/05 11:11:35;;;;;;;20.02;6.20;;;;;;;18.69;48.20;101411.34;5091642;28;20085;-62
2022/11/05 11:14:17;;;;;;;15.75;5.45;;;;;;;19.64;44.77;101395.78;5109639;28;20048;-64
2022/11/05 11:16:45;;;;;;;;;;;;;;;18.43;47.21;101398.47;5043364;28;20398;-61
2022/11/05 11:19:31;;;;;;;19.30;5.10;;;;;;;16.39;51.95;101402.13;5082402;28;19980;-62
2022/11/05 11:24:45;;;;;;;14.90;5.22;;;;;;;18.10;47.45;101398.06;5110104;27;20407;-63
2022/11/05 11:27:18;;;;;;;17.85;5.78;;;;;;;16.80;50.38;101408.03;5107225;28;20040;-62
2022/11/05 11:29:50;;;;;;;14.52;5.88;;;;;;;16.22;52.55;101394.19;5091977;28;20496;-62
2022/11/05 11:32:19;;;;;;;25.88;5.28;;;;;;;15.77;53.86;101401.09;5118499;28;20793;-63
2022/11/05 11:34:51;;;;;;;14.98;5.30;;;;;;;15.23;54.69;101403.50;5104723;28;20044;-63
2022/11/05 11:37:23;;;;;;;;;;;;;;;14.72;57.31;101404.47;5107933;28;20413;-63
2022/11/05 11:39:55;;;;;;;15.35;5.07;;;;;;;14.94;56.32;101396.81;5107147;28;19920;-63
2022/11/05 11:42:28;;;;;;;14.35;5.38;;;;;;;14.37;58.41;101406.38;5105727;28;20051;-62
2022/11/05 11:44:58;;;;;;;19.05;5.70;;;;;;;13.56;60.97;101398.88;5105142;28;20055;-62
2022/11/05 11:47:26;;;;;;;15.60;4.88;;;;;;;13.07;64.73;101402.81;5109636;28;20431;-62
2022/11/05 11:49:56;;;;;;;14.90;5.93;;;;;;;13.02;64.99;101396.28;5108129;28;20054;-63
2022/11/05 11:55:20;;;;;;;15.07;5.50;;;;;;;12.85;66.08;101400.63;5124352;27;20125;-64
2022/11/05 11:57:51;;;;;;;16.50;5.75;;;;;;;12.77;66.56;101396.09;5089949;28;20076;-64
2022/11/05 12:00:22;;;;;;;15.57;5.57;;;;;;;12.83;64.81;101394.63;5074569;28;20097;-62
2022/11/05 12:06:11;;;;;;;16.75;5.57;;;;;;;12.42;66.15;101392.38;5170964;27;20122;-62
2022/11/05 12:08:50;;;;;;;16.58;5.40;;;;;;;12.23;66.30;101396.03;5114000;27;20047;-62
2022/11/05 12:11:33;;;;;;;14.35;5.75;;;;;;;12.10;66.74;101387.56;5130228;27;20039;-62
2022/11/05 12:14:08;;;;;;;23.98;5.75;;;;;;;12.06;67.61;101402.97;5147955;27;20198;-62
2022/11/05 12:16:50;;;;;;;20.30;5.80;;;;;;;11.95;67.14;101394.34;5128096;27;20103;-63
2022/11/05 12:19:56;;;;;;;15.65;5.68;;;;;;;11.96;67.93;101393.38;5148877;27;20043;-64
2022/11/05 12:23:03;;;;;;;16.35;6.10;;;;;;;11.75;68.38;101386.44;5129874;27;20404;-63
2022/11/05 12:25:57;;;;;;;14.38;6.07;;;;;;;11.64;68.78;101395.44;5151175;27;20125;-64
2022/11/05 12:28:37;;;;;;;13.90;5.53;;;;;;;11.94;68.75;101392.69;5132972;27;20070;-64
2022/11/05 12:31:38;;;;;;;13.15;5.93;;;;;;;11.76;69.06;101392.59;5135585;27;20043;-64
2022/11/05 12:34:41;;;;;;;14.45;5.68;;;;;;;11.74;68.32;101391.91;5133110;27;20206;-64